Aérodrome :
LOGIN :

S'inscrire | Disclaimer

   EN    FR    IT 

 










Légende :    VFR   VFR Marginal   IFR   IFR Intensif   IFR Très Intensif
Visi : 
Plafond : 
>= 8 km
>= 3000ft
5 à 8 km
1000 à 3000 ft
1500m à 5 km
500 à 1000 ft
800 à 1500m
200 à 500 ft
< 800m
< 200 ft
Symboles :   Orages  Brouillard  Fortes neiges  Fortes précipitations  Vent > 20 kt
SIGMETs :   Divers  Orages  Givrage  Turbulence  Onde Orograph.  Cendres Volcan.






- Altitude de l'aérodrome : 83 ft
- Code IATA : LHR


EGLL - London Heathrow

DERNIER METAR :
  • 121250Z AUTO 19015KT 5000 -RADZ BKN007 OVC015 09/08 Q0985 RERA REDZ TEMPO 3000 RADZ

METARs EXPIRÉS :
  • 121220Z AUTO 18015KT 7000 -RA BKN007/// OVC014/// //////TCU 09/08 Q0986
  • 121150Z AUTO 17012KT 5000 -DZ SCT007/// BKN011/// OVC017/// //////TCU 08/07 Q0987
  • 121120Z AUTO 16012KT 4900 -RA BKN010/// OVC024/// //////TCU 08/07 Q0989 TEMPO RA BKN008
  • 121050Z AUTO 17012KT 9999 -RA BKN012/// BKN017/// OVC042/// //////TCU 07/07 Q0990 NOSIG
  • 121020Z AUTO 15010KT 9999 -RA BKN012/// BKN018/// OVC045/// //////TCU 07/06 Q0991 TEMPO RA BKN008

TAF TAF EGLL
Valide du 12 à 12h jusqu'au 13 à 18h UTC


121106Z 1212/1318 16012KT 9999 -RA BKN018
PROB40
TEMPO 1212/1214 18015G25KT 4000 RA BKN008
BECMG 1214/1217 23012KT
TEMPO 1214/1217 3000 +RA BKN006
PROB30
TEMPO 1217/1222 7000 SHRA BKN012
BECMG 1222/1302 29010KT
TEMPO 1222/1302 4000 +SHRA BKN014
BECMG 1302/1306 27018G28KT
PROB30
TEMPO 1302/1310 7000 SHRA



MET'MAP, la Météo Aéronautique d'un coup d'oeil ! - Copyright ORBIFLY Décembre 2007 - Disclaimer

ORBIFLY MET'MAP TEAM :

Programmation & Développement : Alexandra Zaïnal
Sur une idée originale de : Baudouin d'Aumeries
Assistance à la programmation : Marc-Olivier Méhu
Soutien technique & logistique : Manuel Goepfert

Contact : metmap@orbifly.com




SOURCES & CREDITS :

   NOAA